createdAt,value
2019-02-18T00:01:13.961Z,54.45
2019-02-18T00:03:44.025Z,54.66
2019-02-18T00:06:13.727Z,54.89
2019-02-18T00:08:43.539Z,55.17
2019-02-18T00:11:12.848Z,55.35
2019-02-18T00:13:42.496Z,55.22
2019-02-18T00:16:11.937Z,55.27
2019-02-18T00:18:41.266Z,55.43
2019-02-18T00:21:10.489Z,55.62
2019-02-18T00:23:39.704Z,55.67
2019-02-18T00:26:09.872Z,55.65
2019-02-18T00:28:40.408Z,55.77
2019-02-18T00:31:09.611Z,55.81
2019-02-18T00:33:38.892Z,55.95
2019-02-18T00:36:08.941Z,56.37
2019-02-18T00:38:38.153Z,56.04
2019-02-18T00:41:07.412Z,56.20
2019-02-18T00:43:36.641Z,56.13
2019-02-18T00:46:09.076Z,56.08
2019-02-18T00:48:38.675Z,56.37
2019-02-18T00:51:08.771Z,56.34
2019-02-18T00:53:37.987Z,56.50
2019-02-18T00:56:07.343Z,56.41
2019-02-18T00:58:36.558Z,56.41
2019-02-18T01:01:05.808Z,56.68
2019-02-18T01:03:35.345Z,57.01
2019-02-18T01:06:08.127Z,56.61
2019-02-18T01:08:37.327Z,57.13
2019-02-18T01:11:06.579Z,56.63
2019-02-18T01:13:35.842Z,57.11
2019-02-18T01:16:05.945Z,57.24
2019-02-18T01:18:35.478Z,56.90
2019-02-18T01:21:04.721Z,57.30
2019-02-18T01:23:33.950Z,57.49
2019-02-18T01:26:04.871Z,57.32
2019-02-18T01:28:35.384Z,57.55
2019-02-18T01:31:04.613Z,57.83
2019-02-18T01:33:33.870Z,57.33
2019-02-18T01:36:04.407Z,57.49
2019-02-18T01:38:33.640Z,57.52
2019-02-18T01:41:02.895Z,57.70
2019-02-18T01:43:32.176Z,58.04
2019-02-18T01:46:02.746Z,57.94
2019-02-18T01:48:32.217Z,57.63
2019-02-18T01:51:01.464Z,57.82
2019-02-18T01:53:30.795Z,57.87
2019-02-18T01:56:00.054Z,57.93
2019-02-18T01:58:29.286Z,58.00
2019-02-18T02:00:58.509Z,58.39
2019-02-18T02:03:28.076Z,58.39
2019-02-18T02:05:57.308Z,58.80
2019-02-18T02:08:26.542Z,59.75
2019-02-18T02:10:56.114Z,59.40
2019-02-18T02:13:29.899Z,59.42
2019-02-18T02:15:59.803Z,59.04
2019-02-18T02:18:29.008Z,59.10
2019-02-18T02:20:58.523Z,59.62
2019-02-18T02:23:27.788Z,59.55
2019-02-18T02:25:56.979Z,59.87
2019-02-18T02:28:26.219Z,59.54
2019-02-18T02:30:55.467Z,59.47
2019-02-18T02:33:24.705Z,59.36
2019-02-18T02:35:54.185Z,59.32
2019-02-18T02:38:23.496Z,59.73
2019-02-18T02:40:52.733Z,59.65
2019-02-18T02:43:21.959Z,59.79
2019-02-18T02:45:52.513Z,60.33
2019-02-18T02:48:21.714Z,60.57
2019-02-18T02:50:50.937Z,60.99
2019-02-18T02:53:20.211Z,60.34
2019-02-18T02:55:50.604Z,61.38
2019-02-18T02:58:19.824Z,61.70
2019-02-18T03:00:49.086Z,61.03
2019-02-18T03:03:18.335Z,61.26
2019-02-18T03:05:48.038Z,61.27
2019-02-18T03:08:20.575Z,61.63
2019-02-18T03:10:48.275Z,61.80
2019-02-18T03:13:17.463Z,62.60
2019-02-18T03:15:46.721Z,62.43
2019-02-18T03:18:15.956Z,62.62
2019-02-18T03:20:45.451Z,62.71
2019-02-18T03:23:14.820Z,62.43
2019-02-18T03:25:45.776Z,62.31
2019-02-18T03:28:35.327Z,62.31
2019-02-18T03:31:11.554Z,62.24
2019-02-18T03:33:47.726Z,61.90
2019-02-18T03:36:17.063Z,62.20
2019-02-18T03:38:46.595Z,62.39
2019-02-18T03:41:15.835Z,62.65
2019-02-18T03:43:45.051Z,62.86
2019-02-18T03:46:14.291Z,62.91
2019-02-18T03:48:43.557Z,62.51
2019-02-18T03:51:12.785Z,62.49
2019-02-18T03:53:42.326Z,62.48
2019-02-18T03:56:11.956Z,62.70
2019-02-18T03:58:41.292Z,62.34
2019-02-18T04:01:10.829Z,62.52
2019-02-18T04:03:40.208Z,62.94
2019-02-18T04:06:09.997Z,62.76
2019-02-18T04:08:42.872Z,62.50
2019-02-18T04:11:10.967Z,62.64
2019-02-18T04:13:40.240Z,62.53
2019-02-18T04:16:10.037Z,62.80
2019-02-18T04:18:39.297Z,62.68
2019-02-18T04:21:08.651Z,63.15
2019-02-18T04:23:38.163Z,63.53
2019-02-18T04:26:08.104Z,63.94
2019-02-18T04:28:37.420Z,63.98
2019-02-18T04:31:06.753Z,63.80
2019-02-18T04:33:36.326Z,63.71
2019-02-18T04:36:08.601Z,63.53
2019-02-18T04:38:37.831Z,63.66
2019-02-18T04:41:07.155Z,63.44
2019-02-18T04:43:36.722Z,63.41
2019-02-18T04:46:06.053Z,63.30
2019-02-18T04:48:35.329Z,63.15
2019-02-18T04:51:04.709Z,63.05
2019-02-18T04:53:33.942Z,62.93
2019-02-18T04:56:04.407Z,62.80
2019-02-18T04:58:33.638Z,62.28
2019-02-18T05:01:03.154Z,62.25
2019-02-18T05:03:32.429Z,62.06
2019-02-18T05:06:02.710Z,61.94
2019-02-18T05:08:31.980Z,61.76
2019-02-18T05:11:01.229Z,61.88
2019-02-18T05:13:30.535Z,61.91
2019-02-18T05:15:59.726Z,62.03
2019-02-18T05:18:29.322Z,62.18
2019-02-18T05:20:58.848Z,62.16
2019-02-18T05:23:28.080Z,62.28
2019-02-18T05:25:57.600Z,61.95
2019-02-18T05:28:26.832Z,62.09
2019-02-18T05:30:56.172Z,62.10
2019-02-18T05:33:25.367Z,62.17
2019-02-18T05:35:55.969Z,62.30
2019-02-18T05:38:25.262Z,62.43
2019-02-18T05:40:54.538Z,62.27
2019-02-18T05:43:24.056Z,62.58
2019-02-18T05:45:53.264Z,62.28
2019-02-18T05:48:22.513Z,62.18
2019-02-18T05:50:52.052Z,62.35
2019-02-18T05:53:21.273Z,62.46
2019-02-18T05:55:50.558Z,62.43
2019-02-18T05:58:19.767Z,62.80
2019-02-18T06:00:49.043Z,62.89
2019-02-18T06:03:18.624Z,62.75
2019-02-18T06:05:47.845Z,62.38
2019-02-18T06:08:22.175Z,62.64
2019-02-18T06:10:52.073Z,62.59
2019-02-18T06:13:22.257Z,62.63
2019-02-18T06:15:52.315Z,61.84
2019-02-18T06:18:22.778Z,62.47
2019-02-18T06:20:52.288Z,62.48
2019-02-18T06:23:21.831Z,61.54
2019-02-18T06:25:51.090Z,61.50
2019-02-18T06:28:20.354Z,62.18
2019-02-18T06:30:49.888Z,61.85
2019-02-18T06:33:19.214Z,61.83
2019-02-18T06:35:48.805Z,62.30
2019-02-18T06:38:18.428Z,62.28
2019-02-18T06:40:47.683Z,62.56
2019-02-18T06:43:16.897Z,62.46
2019-02-18T06:45:57.001Z,62.60
2019-02-18T06:48:31.841Z,62.63
2019-02-18T06:51:01.120Z,62.94
2019-02-18T06:53:31.672Z,63.05
2019-02-18T06:56:00.909Z,63.14
2019-02-18T06:58:51.168Z,62.78
2019-02-18T07:01:39.633Z,63.02
2019-02-18T07:04:30.692Z,62.59
2019-02-18T07:07:13.817Z,62.55
2019-02-18T07:10:00.751Z,62.42
2019-02-18T07:12:32.937Z,62.86
2019-02-18T07:15:02.256Z,62.87
2019-02-18T07:17:32.259Z,62.93
2019-02-18T07:20:02.969Z,62.66
2019-02-18T07:22:32.225Z,62.44
2019-02-18T07:25:01.531Z,62.70
2019-02-18T07:27:30.797Z,62.33
2019-02-18T07:30:00.378Z,62.42
2019-02-18T07:32:30.164Z,61.94
2019-02-18T07:34:59.391Z,62.02
2019-02-18T07:37:28.810Z,62.49
2019-02-18T07:40:01.540Z,61.72
2019-02-18T07:42:29.673Z,61.36
2019-02-18T07:44:59.309Z,60.99
2019-02-18T07:47:29.815Z,60.43
2019-02-18T07:49:59.335Z,59.56
2019-02-18T07:52:28.762Z,59.01
2019-02-18T07:54:58.327Z,57.47
2019-02-18T07:57:27.621Z,56.44
2019-02-18T07:59:56.942Z,54.45
2019-02-18T08:02:27.405Z,52.82
2019-02-18T08:04:56.640Z,50.71
2019-02-18T08:07:26.103Z,48.09
2019-02-18T08:09:55.675Z,45.89
2019-02-18T08:12:24.928Z,43.75
2019-02-18T08:14:54.159Z,41.59
2019-02-18T08:17:23.832Z,39.71
2019-02-18T08:19:53.114Z,37.66
2019-02-18T08:22:22.415Z,35.59
2019-02-18T08:24:52.117Z,33.95
2019-02-18T08:27:21.596Z,32.76
2019-02-18T08:29:50.937Z,31.77
2019-02-18T08:32:21.237Z,31.05
2019-02-18T08:34:50.498Z,31.27
2019-02-18T08:37:19.875Z,31.57
2019-02-18T08:39:49.444Z,32.12
2019-02-18T08:42:18.713Z,32.39
2019-02-18T08:44:47.980Z,32.95
2019-02-18T08:47:17.624Z,33.01
2019-02-18T08:49:47.353Z,34.36
2019-02-18T08:52:17.031Z,34.87
2019-02-18T08:54:56.019Z,35.56
2019-02-18T08:57:17.753Z,35.80
2019-02-18T08:59:46.995Z,37.07
2019-02-18T09:02:17.646Z,37.18
2019-02-18T09:04:46.900Z,37.60
2019-02-18T09:07:16.152Z,38.13
2019-02-18T09:09:45.847Z,37.61
2019-02-18T09:12:15.079Z,38.42
2019-02-18T09:14:44.635Z,39.26
2019-02-18T09:17:14.449Z,39.72
2019-02-18T09:19:44.268Z,40.09
2019-02-18T09:22:31.225Z,39.97
2019-02-18T09:25:15.790Z,40.02
2019-02-18T09:27:45.080Z,40.38
2019-02-18T09:30:18.061Z,40.95
2019-02-18T09:32:47.296Z,40.48
2019-02-18T09:35:16.576Z,40.22
2019-02-18T09:37:47.038Z,39.58
2019-02-18T09:40:16.585Z,39.43
2019-02-18T09:42:46.360Z,38.87
2019-02-18T09:45:16.022Z,39.51
2019-02-18T09:47:45.342Z,38.97
2019-02-18T09:50:14.868Z,37.97
2019-02-18T09:52:44.111Z,36.76
2019-02-18T09:55:13.387Z,36.19
2019-02-18T09:57:42.946Z,36.62
2019-02-18T10:00:12.249Z,36.39
2019-02-18T10:02:41.629Z,36.48
2019-02-18T10:05:11.222Z,36.02
2019-02-18T10:07:40.459Z,34.64
2019-02-18T10:10:10.147Z,34.50
2019-02-18T10:12:39.700Z,34.00
2019-02-18T10:15:09.038Z,33.59
2019-02-18T10:17:38.295Z,34.33
2019-02-18T10:20:08.741Z,33.46
2019-02-18T10:22:37.974Z,34.06
2019-02-18T10:25:08.313Z,34.46
2019-02-18T10:27:39.111Z,34.01
2019-02-18T10:30:08.651Z,33.66
2019-02-18T10:32:38.025Z,34.65
2019-02-18T10:35:09.101Z,33.83
2019-02-18T10:37:38.372Z,33.58
2019-02-18T10:40:08.213Z,34.08
2019-02-18T10:42:37.858Z,34.06
2019-02-18T10:45:08.546Z,32.83
2019-02-18T10:47:37.907Z,31.63
2019-02-18T10:50:09.836Z,31.38
2019-02-18T10:52:39.066Z,30.37
2019-02-18T10:55:08.751Z,29.33
2019-02-18T10:57:38.808Z,28.60
2019-02-18T11:00:10.044Z,27.96
2019-02-18T11:02:39.318Z,27.73
2019-02-18T11:05:09.270Z,27.07
2019-02-18T11:07:40.186Z,26.54
2019-02-18T11:10:12.032Z,26.44
2019-02-18T11:12:41.617Z,26.19
2019-02-18T11:15:11.904Z,25.70
2019-02-18T11:17:41.150Z,25.44
2019-02-18T11:20:11.397Z,25.28
2019-02-18T11:22:40.639Z,24.91
2019-02-18T11:25:10.480Z,26.18
2019-02-18T11:27:40.618Z,25.16
2019-02-18T11:30:12.314Z,24.66
2019-02-18T11:32:41.722Z,24.13
2019-02-18T11:35:13.170Z,23.76
2019-02-18T11:37:42.414Z,23.30
2019-02-18T11:40:13.642Z,23.52
2019-02-18T11:42:43.673Z,23.71
2019-02-18T11:45:14.348Z,23.34
2019-02-18T11:47:43.751Z,23.32
2019-02-18T11:50:13.913Z,22.90
2019-02-18T11:52:43.577Z,23.12
2019-02-18T11:55:13.006Z,23.39
2019-02-18T11:57:45.446Z,22.57
2019-02-18T12:00:15.708Z,22.59
2019-02-18T12:02:45.959Z,22.56
2019-02-18T12:05:17.764Z,22.40
2019-02-18T12:07:47.248Z,22.60
2019-02-18T12:10:17.649Z,22.39
2019-02-18T12:12:47.345Z,23.11
2019-02-18T12:15:16.829Z,23.12
2019-02-18T12:17:46.874Z,23.39
2019-02-18T12:20:16.561Z,22.91
2019-02-18T12:22:46.555Z,23.21
2019-02-18T12:25:15.957Z,23.37
2019-02-18T12:27:45.815Z,23.33
2019-02-18T12:30:15.072Z,22.90
2019-02-18T12:32:44.358Z,23.58
2019-02-18T12:35:14.063Z,23.52
2019-02-18T12:37:43.411Z,23.14
2019-02-18T12:40:12.768Z,23.00
2019-02-18T12:42:42.785Z,22.97
2019-02-18T12:45:12.431Z,22.55
2019-02-18T12:47:41.914Z,22.48
2019-02-18T12:50:12.026Z,23.40
2019-02-18T12:52:41.269Z,22.72
2019-02-18T12:55:10.720Z,22.33
2019-02-18T12:57:40.443Z,22.66
2019-02-18T13:00:10.542Z,22.31
2019-02-18T13:02:44.200Z,22.35
2019-02-18T13:05:12.572Z,22.47
2019-02-18T13:07:41.917Z,22.49
2019-02-18T13:10:11.682Z,22.75
2019-02-18T13:12:41.429Z,22.67
2019-02-18T13:15:11.775Z,22.73
2019-02-18T13:17:42.888Z,22.42
2019-02-18T13:20:12.561Z,22.48
2019-02-18T13:22:41.867Z,22.40
2019-02-18T13:25:11.123Z,21.72
2019-02-18T13:27:43.922Z,21.91
2019-02-18T13:30:14.785Z,21.94
2019-02-18T13:32:44.084Z,21.96
2019-02-18T13:35:13.630Z,22.07
2019-02-18T13:37:42.955Z,22.16
2019-02-18T13:40:13.524Z,21.96
2019-02-18T13:42:43.482Z,22.82
2019-02-18T13:45:12.075Z,22.64
2019-02-18T13:47:41.373Z,23.04
2019-02-18T13:50:11.551Z,22.73
2019-02-18T13:52:40.859Z,22.50
2019-02-18T13:55:10.498Z,22.16
2019-02-18T13:57:40.493Z,22.23
2019-02-18T14:00:17.993Z,22.11
2019-02-18T14:02:47.690Z,22.43
2019-02-18T14:05:17.552Z,22.68
2019-02-18T14:07:46.774Z,23.17
2019-02-18T14:10:16.319Z,23.54
2019-02-18T14:12:45.852Z,24.16
2019-02-18T14:15:16.468Z,24.87
2019-02-18T14:17:45.813Z,25.82
2019-02-18T14:20:15.454Z,26.50
2019-02-18T14:22:44.770Z,27.39
2019-02-18T14:25:15.183Z,27.47
2019-02-18T14:27:44.699Z,28.10
2019-02-18T14:30:14.792Z,27.59
2019-02-18T14:32:44.129Z,28.14
2019-02-18T14:35:13.804Z,29.12
2019-02-18T14:37:43.091Z,29.68
2019-02-18T14:40:18.207Z,29.49
2019-02-18T14:42:48.899Z,29.75
2019-02-18T14:45:19.006Z,30.30
2019-02-18T14:47:48.673Z,30.17
2019-02-18T14:50:18.904Z,30.14
2019-02-18T14:52:48.580Z,30.12
2019-02-18T14:55:17.979Z,30.66
2019-02-18T14:57:47.808Z,30.38
2019-02-18T15:00:23.453Z,30.40
2019-02-18T15:02:56.969Z,30.60
2019-02-18T15:05:27.098Z,30.56
2019-02-18T15:07:56.386Z,30.14
2019-02-18T15:10:25.921Z,30.76
2019-02-18T15:12:55.218Z,31.29
2019-02-18T15:15:24.647Z,31.57
2019-02-18T15:17:54.404Z,31.38
2019-02-18T15:20:24.497Z,31.56
2019-02-18T15:22:53.776Z,31.19
2019-02-18T15:25:23.442Z,31.83
2019-02-18T15:27:52.820Z,31.82
2019-02-18T15:30:22.427Z,31.49
2019-02-18T15:32:51.999Z,31.38
2019-02-18T15:35:21.288Z,31.11
2019-02-18T15:37:50.553Z,31.89
2019-02-18T15:40:20.811Z,31.51
2019-02-18T15:42:50.109Z,30.99
2019-02-18T15:45:19.630Z,30.95
2019-02-18T15:47:50.296Z,31.23
2019-02-18T15:50:19.812Z,31.00
2019-02-18T15:52:49.679Z,30.45
2019-02-18T15:55:19.479Z,30.64
2019-02-18T15:57:48.786Z,30.59
2019-02-18T16:00:20.501Z,30.13
2019-02-18T16:02:50.005Z,30.60
2019-02-18T16:05:19.286Z,30.48
2019-02-18T16:07:48.883Z,30.49
2019-02-18T16:10:18.173Z,30.52
2019-02-18T16:12:51.051Z,31.16
2019-02-18T16:15:20.844Z,30.92
2019-02-18T16:17:50.366Z,31.26
2019-02-18T16:20:20.604Z,31.61
2019-02-18T16:22:50.371Z,31.94
2019-02-18T16:25:21.045Z,31.72
2019-02-18T16:27:50.325Z,32.04
2019-02-18T16:30:19.833Z,32.14
2019-02-18T16:32:49.081Z,33.02
2019-02-18T16:35:18.688Z,32.77
2019-02-18T16:37:49.019Z,33.11
2019-02-18T16:40:18.662Z,33.55
2019-02-18T16:42:47.918Z,34.11
2019-02-18T16:45:17.449Z,33.61
2019-02-18T16:47:46.686Z,33.49
2019-02-18T16:50:16.019Z,33.97
2019-02-18T16:52:45.691Z,34.84
2019-02-18T16:55:15.471Z,34.88
2019-02-18T16:57:44.972Z,34.29
2019-02-18T17:00:22.494Z,34.97
2019-02-18T17:02:51.919Z,35.46
2019-02-18T17:05:21.169Z,35.77
2019-02-18T17:07:50.422Z,36.27
2019-02-18T17:10:19.761Z,36.13
2019-02-18T17:12:49.698Z,36.49
2019-02-18T17:15:19.333Z,36.08
2019-02-18T17:17:49.045Z,36.12
2019-02-18T17:20:19.789Z,36.07
2019-02-18T17:22:50.347Z,36.30
2019-02-18T17:25:20.321Z,36.69
2019-02-18T17:27:50.431Z,36.88
2019-02-18T17:30:20.294Z,36.24
2019-02-18T17:32:50.038Z,37.28
2019-02-18T17:35:20.245Z,36.55
2019-02-18T17:37:49.961Z,36.68
2019-02-18T17:40:19.866Z,37.25
2019-02-18T17:42:50.324Z,36.94
2019-02-18T17:45:20.180Z,37.20
2019-02-18T17:47:49.993Z,37.73
2019-02-18T17:50:20.461Z,37.71
2019-02-18T17:52:50.548Z,38.05
2019-02-18T17:55:20.682Z,38.13
2019-02-18T17:57:50.708Z,37.72
2019-02-18T18:00:22.193Z,37.64
2019-02-18T18:02:52.273Z,37.74
2019-02-18T18:07:48.512Z,38.27
2019-02-18T18:10:19.127Z,38.17
2019-02-18T18:12:48.856Z,38.99
2019-02-18T18:15:19.911Z,38.99
2019-02-18T18:17:52.291Z,39.24
2019-02-18T18:20:24.166Z,38.79
2019-02-18T18:22:55.604Z,38.35
2019-02-18T18:25:26.721Z,38.41
2019-02-18T18:27:56.975Z,38.52
2019-02-18T18:30:26.755Z,38.62
2019-02-18T18:32:58.005Z,38.64
2019-02-18T18:35:27.700Z,38.78
2019-02-18T18:37:57.871Z,38.64
2019-02-18T18:40:27.978Z,38.71
2019-02-18T18:42:57.882Z,38.75
2019-02-18T18:45:27.605Z,38.74
2019-02-18T18:47:58.497Z,39.24
2019-02-18T18:50:28.797Z,39.85
2019-02-18T18:52:59.090Z,40.00
2019-02-18T18:55:29.937Z,40.06
2019-02-18T18:57:59.916Z,40.12
2019-02-18T19:00:29.738Z,40.56
2019-02-18T19:02:59.910Z,40.81
2019-02-18T19:05:29.729Z,41.52
2019-02-18T19:07:59.674Z,41.52
2019-02-18T19:10:29.820Z,41.85
2019-02-18T19:12:59.538Z,42.65
2019-02-18T19:15:29.507Z,42.40
2019-02-18T19:18:01.032Z,43.01
2019-02-18T19:20:30.746Z,43.00
2019-02-18T19:23:00.500Z,42.83
2019-02-18T19:25:30.644Z,42.93
2019-02-18T19:28:01.229Z,43.15
2019-02-18T19:30:33.367Z,43.06
2019-02-18T19:33:03.803Z,43.15
2019-02-18T19:35:35.895Z,43.67
2019-02-18T19:38:09.145Z,43.58
2019-02-18T19:40:39.303Z,44.16
2019-02-18T19:43:09.285Z,44.17
2019-02-18T19:45:39.191Z,44.65
2019-02-18T19:48:09.264Z,44.47
2019-02-18T19:50:40.085Z,44.64
2019-02-18T19:53:10.178Z,44.62
2019-02-18T19:55:40.306Z,44.73
2019-02-18T19:58:10.039Z,44.55
2019-02-18T20:00:39.898Z,45.11
2019-02-18T20:03:10.038Z,44.71
2019-02-18T20:05:40.563Z,45.24
2019-02-18T20:08:10.494Z,45.26
2019-02-18T20:10:41.605Z,45.70
2019-02-18T20:13:11.468Z,45.75
2019-02-18T20:15:41.471Z,45.71
2019-02-18T20:18:11.610Z,45.41
2019-02-18T20:20:41.357Z,45.76
2019-02-18T20:23:11.367Z,46.25
2019-02-18T20:25:43.957Z,46.03
2019-02-18T20:28:13.644Z,46.26
2019-02-18T20:30:44.407Z,46.49
2019-02-18T20:33:15.086Z,46.25
2019-02-18T20:35:45.129Z,46.88
2019-02-18T20:38:14.896Z,46.51
2019-02-18T20:40:50.136Z,46.99
2019-02-18T20:43:20.264Z,46.97
2019-02-18T20:45:50.103Z,47.82
2019-02-18T20:48:20.034Z,48.06
2019-02-18T20:50:50.072Z,47.68
2019-02-18T20:53:21.253Z,47.69
2019-02-18T20:55:51.274Z,48.23
2019-02-18T20:58:22.114Z,48.55
2019-02-18T21:00:52.210Z,48.35
2019-02-18T21:03:22.146Z,48.22
2019-02-18T21:05:51.904Z,49.33
2019-02-18T21:08:21.677Z,48.75
2019-02-18T21:10:51.568Z,49.49
2019-02-18T21:13:24.139Z,49.02
2019-02-18T21:15:54.090Z,49.25
2019-02-18T21:18:23.881Z,48.83
2019-02-18T21:20:53.719Z,49.00
2019-02-18T21:23:23.565Z,49.22
2019-02-18T21:25:53.517Z,48.97
2019-02-18T21:28:23.233Z,49.70
2019-02-18T21:30:53.135Z,49.55
2019-02-18T21:33:23.953Z,49.83
2019-02-18T21:35:53.691Z,49.86
2019-02-18T21:38:23.190Z,50.19
2019-02-18T21:40:53.118Z,50.15
2019-02-18T21:43:22.563Z,50.52
2019-02-18T21:45:52.067Z,51.09
2019-02-18T21:48:21.878Z,51.34
2019-02-18T21:50:51.336Z,51.46
2019-02-18T21:53:21.039Z,51.13
2019-02-18T21:55:50.724Z,51.73
2019-02-18T21:58:20.009Z,51.46
2019-02-18T22:00:49.558Z,51.87
2019-02-18T22:03:19.134Z,52.06
2019-02-18T22:05:48.902Z,52.47
2019-02-18T22:08:18.519Z,52.18
2019-02-18T22:10:48.130Z,52.16
2019-02-18T22:13:17.770Z,52.03
2019-02-18T22:15:47.280Z,52.14
2019-02-18T22:18:16.906Z,52.26
2019-02-18T22:20:46.206Z,52.12
2019-02-18T22:23:15.505Z,52.16
2019-02-18T22:25:45.098Z,51.31
2019-02-18T22:28:14.432Z,51.25
2019-02-18T22:30:43.696Z,51.75
2019-02-18T22:33:13.380Z,51.23
2019-02-18T22:35:45.841Z,51.28
2019-02-18T22:38:15.154Z,50.99
2019-02-18T22:40:44.578Z,51.33
2019-02-18T22:43:13.974Z,51.28
2019-02-18T22:45:43.579Z,51.33
2019-02-18T22:48:12.874Z,51.64
2019-02-18T22:50:42.159Z,50.92
2019-02-18T22:53:11.602Z,51.41
2019-02-18T22:55:40.895Z,50.97
2019-02-18T22:58:10.652Z,51.49
2019-02-18T23:01:02.771Z,50.91
2019-02-18T23:03:33.496Z,51.23
2019-02-18T23:06:04.645Z,51.33
2019-02-18T23:08:33.909Z,50.94
2019-02-18T23:11:04.050Z,51.37
2019-02-18T23:13:33.732Z,51.45
2019-02-18T23:16:04.391Z,51.53
2019-02-18T23:18:34.478Z,51.74
2019-02-18T23:21:03.781Z,51.99
2019-02-18T23:23:33.396Z,51.69
2019-02-18T23:26:04.922Z,52.26
2019-02-18T23:28:34.223Z,52.05
2019-02-18T23:31:04.042Z,52.22
2019-02-18T23:33:33.955Z,52.40
2019-02-18T23:36:04.049Z,52.19
2019-02-18T23:38:36.632Z,51.90
2019-02-18T23:41:06.042Z,51.87
2019-02-18T23:43:35.661Z,52.14
2019-02-18T23:46:06.103Z,52.50
2019-02-18T23:48:35.369Z,52.66
2019-02-18T23:51:04.897Z,52.74
2019-02-18T23:53:34.131Z,52.63
2019-02-18T23:56:04.423Z,52.31
2019-02-18T23:58:33.976Z,52.45
